Time;durP1;ratioP1;P1;durP2;ratioP2;P2;SDS_P1;SDS_P2;PMS_P1;PMS_P2;Temp;Humidity;BMP_temperature;BMP_pressure;BME280_temperature;BME280_humidity;BME280_pressure;Samples;Min_cycle;Max_cycle;Signal;HPM_P1;HPM_P2
2023/05/24 00:02:22;;;;;;;12.07;6.90;;;;;;;12.50;87.17;94547.28;5067769;28;20409;-85
2023/05/24 00:04:48;;;;;;;10.87;7.07;;;;;;;12.85;87.12;94603.53;5066754;28;20422;-85
2023/05/24 00:07:15;;;;;;;11.35;6.40;;;;;;;13.11;86.56;94641.88;5069354;28;20178;-86
2023/05/24 00:09:42;;;;;;;11.85;5.97;;;;;;;12.84;86.42;94596.63;5065772;28;20214;-85
2023/05/24 00:12:07;;;;;;;10.73;6.97;;;;;;;12.59;86.63;94564.38;5058182;28;20442;-85
2023/05/24 00:14:33;;;;;;;12.20;7.93;;;;;;;12.62;86.99;94579.78;5053273;28;20498;-84
2023/05/24 00:16:58;;;;;;;11.20;7.53;;;;;;;12.88;86.78;94617.31;5063943;28;20174;-86
2023/05/24 00:19:24;;;;;;;15.00;6.55;;;;;;;12.88;86.36;94610.19;5055077;28;20170;-85
2023/05/24 00:21:50;;;;;;;10.52;6.13;;;;;;;12.78;86.42;94605.50;5069043;28;20212;-86
2023/05/24 00:24:16;;;;;;;6.63;5.72;;;;;;;12.93;86.49;94631.44;5067478;28;20174;-86
2023/05/24 00:26:41;;;;;;;14.23;7.38;;;;;;;13.09;86.56;94656.34;5060831;28;20175;-85
2023/05/24 00:29:07;;;;;;;11.07;6.00;;;;;;;12.66;86.57;94582.75;5062496;28;20282;-86
2023/05/24 00:31:33;;;;;;;13.20;6.03;;;;;;;12.96;86.74;94640.75;5068605;28;20194;-85
2023/05/24 00:33:58;;;;;;;7.27;5.00;;;;;;;12.92;86.77;94626.38;5058482;28;20178;-85
2023/05/24 00:36:23;;;;;;;9.73;6.10;;;;;;;12.20;86.94;94536.00;5053054;28;20407;-85
2023/05/24 00:38:49;;;;;;;12.53;6.13;;;;;;;12.75;87.59;94635.00;5051876;28;20175;-85
2023/05/24 00:41:15;;;;;;;11.10;5.90;;;;;;;12.57;87.77;94602.59;5056638;28;20292;-85
2023/05/24 00:43:43;;;;;;;15.83;7.00;;;;;;;12.64;87.74;94622.59;5062137;28;20178;-85
2023/05/24 00:46:20;;;;;;;13.73;6.47;;;;;;;12.62;88.09;94623.88;5063422;28;20173;-85
2023/05/24 00:48:47;;;;;;;18.13;6.80;;;;;;;12.44;88.74;94609.72;5063369;28;20250;-85
2023/05/24 00:51:13;;;;;;;12.33;6.97;;;;;;;12.66;88.52;94643.50;5055494;28;20257;-85
2023/05/24 00:53:41;;;;;;;16.40;6.70;;;;;;;12.58;88.49;94633.25;5061991;28;20257;-85
2023/05/24 00:56:07;;;;;;;13.77;6.97;;;;;;;12.52;88.52;94624.44;5061252;28;20231;-85
2023/05/24 00:58:33;;;;;;;15.47;6.63;;;;;;;12.52;88.36;94626.25;5060033;28;20526;-85
2023/05/24 01:01:00;;;;;;;15.37;7.17;;;;;;;12.59;88.60;94633.03;5069106;28;20185;-85
2023/05/24 01:03:29;;;;;;;13.27;7.10;;;;;;;12.52;88.42;94620.97;5064039;28;20183;-84
2023/05/24 01:06:02;;;;;;;14.00;6.07;;;;;;;12.58;87.70;94646.47;5062560;28;20187;-85
2023/05/24 01:08:58;;;;;;;16.50;7.27;;;;;;;12.44;88.24;94628.22;5062429;28;20198;-85
2023/05/24 01:11:58;;;;;;;11.80;6.20;;;;;;;12.49;88.40;94656.56;5066206;28;20229;-86
2023/05/24 01:14:58;;;;;;;13.73;6.80;;;;;;;12.47;88.34;94648.84;5061139;28;20198;-86
2023/05/24 01:17:36;;;;;;;11.30;7.00;;;;;;;12.38;88.41;94644.13;5064228;28;20184;-86
2023/05/24 01:20:07;;;;;;;11.00;6.47;;;;;;;12.26;88.48;94627.50;5063722;28;20166;-86
2023/05/24 01:22:54;;;;;;;9.77;6.47;;;;;;;12.32;88.79;94650.31;5065010;28;20182;-86
2023/05/24 01:25:54;;;;;;;12.30;6.13;;;;;;;12.29;88.67;94648.94;5066040;28;20174;-86
2023/05/24 01:28:21;;;;;;;13.10;6.20;;;;;;;12.28;89.09;94651.81;5062283;28;20195;-86
2023/05/24 01:30:47;;;;;;;9.27;6.13;;;;;;;12.09;88.65;94630.78;5062971;28;20240;-86
2023/05/24 01:33:13;;;;;;;14.77;6.60;;;;;;;11.96;89.20;94616.97;5063318;28;20258;-86
2023/05/24 01:35:41;;;;;;;11.77;7.00;;;;;;;11.93;89.42;94610.31;5065250;28;20610;-86
2023/05/24 01:38:09;;;;;;;12.17;7.73;;;;;;;12.15;89.38;94636.16;5066474;28;20175;-85
2023/05/24 01:40:36;;;;;;;13.43;7.90;;;;;;;12.05;88.95;94628.81;5065339;28;20185;-86
2023/05/24 01:43:26;;;;;;;14.77;7.73;;;;;;;12.02;89.02;94619.50;5063191;28;20167;-85
2023/05/24 01:46:21;;;;;;;14.27;8.17;;;;;;;12.14;89.41;94647.75;5065761;28;20181;-86
2023/05/24 01:48:52;;;;;;;12.90;8.03;;;;;;;12.11;89.70;94650.88;5059509;28;20218;-85
2023/05/24 01:51:21;;;;;;;12.67;7.23;;;;;;;12.16;89.50;94640.44;5063113;28;20168;-86
2023/05/24 01:53:49;;;;;;;10.87;8.00;;;;;;;11.94;89.27;94619.00;5062921;28;20186;-85
2023/05/24 01:56:16;;;;;;;12.20;7.37;;;;;;;12.17;89.16;94647.31;5058153;28;20171;-85
2023/05/24 01:58:44;;;;;;;9.77;6.20;;;;;;;12.13;89.05;94644.31;5066005;28;20662;-85
2023/05/24 02:01:11;;;;;;;12.40;6.80;;;;;;;11.90;88.91;94608.13;5062795;28;20332;-85
2023/05/24 02:03:38;;;;;;;13.27;6.93;;;;;;;11.80;89.04;94601.78;5062608;28;20175;-85
2023/05/24 02:06:04;;;;;;;10.10;6.70;;;;;;;12.02;89.24;94634.53;5064913;28;20183;-85
2023/05/24 02:08:29;;;;;;;10.10;6.33;;;;;;;11.94;89.69;94619.00;5069053;28;20203;-86
2023/05/24 02:10:54;;;;;;;12.83;7.23;;;;;;;11.89;89.48;94608.34;5061201;28;20218;-86
2023/05/24 02:13:20;;;;;;;14.23;7.23;;;;;;;11.94;89.34;94624.28;5062052;28;20172;-86
2023/05/24 02:15:46;;;;;;;9.70;7.00;;;;;;;11.91;89.45;94619.47;5062618;28;20190;-86
2023/05/24 02:18:12;;;;;;;9.00;6.37;;;;;;;11.82;89.82;94597.09;5064405;28;20246;-85
2023/05/24 02:20:38;;;;;;;9.80;7.37;;;;;;;11.91;89.74;94607.09;5065605;28;20180;-86
2023/05/24 02:23:04;;;;;;;12.07;8.15;;;;;;;11.81;89.70;94595.47;5064605;28;20410;-85
2023/05/24 02:25:32;;;;;;;10.10;6.20;;;;;;;12.01;89.44;94633.75;5057885;28;20195;-85
2023/05/24 02:27:58;;;;;;;10.73;7.57;;;;;;;11.95;89.14;94618.78;5065424;28;20198;-86
2023/05/24 02:30:24;;;;;;;10.67;6.10;;;;;;;11.66;89.17;94572.13;5063544;28;20723;-86
2023/05/24 02:32:49;;;;;;;12.63;6.37;;;;;;;11.92;89.15;94629.00;5067008;28;20167;-86
2023/05/24 02:35:15;;;;;;;12.30;6.87;;;;;;;11.89;89.42;94634.72;5062601;28;20205;-87
2023/05/24 02:37:40;;;;;;;11.27;7.27;;;;;;;11.81;89.46;94619.22;5064104;28;20174;-87
2023/05/24 02:40:06;;;;;;;11.03;6.70;;;;;;;11.64;89.65;94593.44;5066919;28;20175;-87
2023/05/24 02:42:32;;;;;;;9.57;6.13;;;;;;;11.65;89.92;94602.16;5063877;28;20194;-87
2023/05/24 02:44:57;;;;;;;11.03;6.43;;;;;;;11.58;89.79;94586.44;5063944;28;20182;-88
2023/05/24 02:47:22;;;;;;;8.77;5.90;;;;;;;11.70;89.39;94608.34;5065148;28;20250;-88
2023/05/24 02:49:48;;;;;;;12.93;6.87;;;;;;;11.79;89.49;94629.16;5056867;28;20218;-88
2023/05/24 02:52:14;;;;;;;8.27;5.73;;;;;;;11.46;89.45;94563.66;5065653;28;20248;-85
2023/05/24 02:54:40;;;;;;;7.73;5.47;;;;;;;11.66;89.02;94604.56;5068914;28;20177;-85
2023/05/24 02:57:05;;;;;;;8.83;6.03;;;;;;;11.48;89.51;94575.63;5060428;28;20190;-85
2023/05/24 02:59:32;;;;;;;10.63;6.00;;;;;;;11.53;89.92;94591.53;5061579;28;20199;-85
2023/05/24 03:01:58;;;;;;;8.37;5.90;;;;;;;11.66;89.47;94611.69;5063498;28;20648;-86
2023/05/24 03:04:23;;;;;;;12.77;7.73;;;;;;;11.56;89.62;94601.66;5063251;28;20185;-85
2023/05/24 03:06:48;;;;;;;8.87;6.07;;;;;;;11.71;89.92;94627.63;5063593;28;20185;-85
2023/05/24 03:09:15;;;;;;;14.50;6.67;;;;;;;11.59;89.45;94603.81;5060116;28;20677;-85
2023/05/24 03:11:41;;;;;;;16.10;7.23;;;;;;;11.80;89.08;94641.31;5060058;28;20609;-85
2023/05/24 03:14:08;;;;;;;12.03;6.77;;;;;;;11.59;89.49;94617.00;5062997;28;20178;-85
2023/05/24 03:16:34;;;;;;;10.13;6.03;;;;;;;11.70;89.47;94626.00;5063325;28;20201;-85
2023/05/24 03:19:00;;;;;;;15.97;6.83;;;;;;;11.87;89.53;94649.94;5054773;28;20638;-82
2023/05/24 03:21:26;;;;;;;12.10;6.60;;;;;;;11.75;89.38;94628.81;5064511;28;20564;-83
2023/05/24 03:23:51;;;;;;;14.33;6.37;;;;;;;11.94;89.36;94661.22;5064856;28;20186;-83
2023/05/24 03:26:17;;;;;;;16.97;6.73;;;;;;;11.91;89.51;94649.28;5060121;28;20171;-83
2023/05/24 03:28:44;;;;;;;16.53;6.67;;;;;;;11.90;89.60;94647.69;5060892;28;20198;-83
2023/05/24 03:31:10;;;;;;;8.90;5.97;;;;;;;12.06;89.67;94659.44;5065583;28;20174;-82
2023/05/24 03:33:36;;;;;;;14.50;6.60;;;;;;;12.01;89.23;94660.13;5061097;28;20344;-83
2023/05/24 03:36:03;;;;;;;18.60;8.03;;;;;;;12.15;89.04;94665.19;5059135;28;20669;-82
2023/05/24 03:38:28;;;;;;;16.33;7.93;;;;;;;12.25;89.26;94676.81;5063316;28;20166;-83
2023/05/24 03:40:54;;;;;;;19.60;8.87;;;;;;;12.15;89.38;94644.91;5063740;28;20167;-83
2023/05/24 03:43:20;;;;;;;17.23;8.00;;;;;;;12.39;89.15;94661.59;5062795;28;20174;-83
2023/05/24 03:45:45;;;;;;;15.57;7.77;;;;;;;12.58;88.30;94668.41;5063964;28;20722;-83
2023/05/24 03:48:12;;;;;;;13.23;7.00;;;;;;;12.70;87.78;94673.72;5063960;28;20676;-83
2023/05/24 03:50:37;;;;;;;15.77;8.10;;;;;;;12.61;88.02;94638.09;5061563;28;20202;-82
2023/05/24 03:53:03;;;;;;;18.47;9.03;;;;;;;12.78;87.63;94639.84;5059484;28;20258;-82
2023/05/24 03:55:28;;;;;;;15.23;8.73;;;;;;;13.10;86.32;94673.81;5066056;28;20175;-83
2023/05/24 03:57:54;;;;;;;22.43;9.07;;;;;;;13.02;85.92;94645.09;5062974;28;20656;-83
2023/05/24 04:00:20;;;;;;;22.40;10.47;;;;;;;13.15;85.25;94650.97;5061025;28;20177;-83
2023/05/24 04:02:45;;;;;;;17.43;9.50;;;;;;;13.43;85.75;94678.53;5061877;28;20178;-83
2023/05/24 04:05:13;;;;;;;21.00;9.83;;;;;;;13.46;85.66;94656.91;5059649;28;20194;-84
2023/05/24 04:07:39;;;;;;;15.63;9.33;;;;;;;13.56;84.11;94657.13;5057686;28;20179;-84
2023/05/24 04:10:06;;;;;;;17.93;12.00;;;;;;;13.92;83.75;94685.09;5063577;28;20182;-84
2023/05/24 04:12:32;;;;;;;20.03;12.37;;;;;;;13.85;83.96;94637.59;5062369;28;20223;-84
2023/05/24 04:14:58;;;;;;;22.23;12.63;;;;;;;14.35;83.48;94688.03;5059200;28;20664;-84
2023/05/24 04:17:24;;;;;;;52.93;30.30;;;;;;;14.39;82.20;94666.38;5063240;28;20179;-84
2023/05/24 04:19:50;;;;;;;19.00;10.82;;;;;;;14.61;81.29;94668.09;5058738;28;20993;-84
2023/05/24 04:22:17;;;;;;;14.77;9.77;;;;;;;14.84;81.38;94683.03;5065207;28;20170;-83
2023/05/24 04:24:43;;;;;;;16.77;8.83;;;;;;;14.95;81.38;94676.06;5065254;28;20163;-83
2023/05/24 04:27:09;;;;;;;11.10;7.60;;;;;;;15.13;80.25;94667.03;5060139;28;20646;-84
2023/05/24 04:29:35;;;;;;;16.33;6.95;;;;;;;15.19;78.73;94656.25;5069164;28;20197;-83
2023/05/24 04:32:00;;;;;;;10.00;6.72;;;;;;;15.59;78.75;94681.75;5058453;28;20190;-83
2023/05/24 04:34:28;;;;;;;12.80;7.15;;;;;;;15.79;77.95;94684.66;5064270;28;20171;-83
2023/05/24 04:36:54;;;;;;;11.93;6.30;;;;;;;16.09;76.96;94692.97;5065274;28;20210;-83
2023/05/24 04:39:20;;;;;;;9.65;6.20;;;;;;;16.33;75.10;94692.69;5070974;28;20174;-83
2023/05/24 04:41:45;;;;;;;11.50;6.63;;;;;;;16.52;74.39;94689.44;5064267;28;20184;-83
2023/05/24 04:44:11;;;;;;;11.75;6.18;;;;;;;16.83;73.77;94709.16;5072572;28;20210;-84
2023/05/24 04:46:36;;;;;;;15.48;6.85;;;;;;;16.79;74.19;94680.66;5060084;28;20181;-83
2023/05/24 04:49:02;;;;;;;9.05;6.45;;;;;;;16.98;72.97;94682.69;5070399;28;20665;-83
2023/05/24 04:51:27;;;;;;;12.82;6.03;;;;;;;17.32;71.29;94707.13;5065979;28;20178;-83
2023/05/24 04:53:53;;;;;;;9.20;5.47;;;;;;;17.07;70.58;94664.38;5064534;28;20166;-84
2023/05/24 04:56:18;;;;;;;22.25;14.35;;;;;;;17.57;71.69;94716.31;5070349;28;20179;-83
2023/05/24 04:58:44;;;;;;;8.15;6.53;;;;;;;17.70;70.73;94702.59;5067189;28;21687;-83
2023/05/24 05:01:09;;;;;;;10.35;7.07;;;;;;;17.86;70.18;94679.50;5065438;28;20262;-84
2023/05/24 05:03:35;;;;;;;13.80;6.00;;;;;;;18.39;68.25;94719.13;5064162;28;20177;-84
2023/05/24 05:06:00;;;;;;;12.00;5.82;;;;;;;18.61;67.26;94734.94;5061592;28;20178;-84
2023/05/24 05:08:26;;;;;;;10.38;5.13;;;;;;;18.66;65.78;94713.63;5068247;28;20276;-84
2023/05/24 05:10:51;;;;;;;8.60;5.85;;;;;;;18.83;64.24;94713.38;5064248;28;20219;-84
2023/05/24 05:13:16;;;;;;;11.13;7.03;;;;;;;19.10;63.68;94737.94;5062963;28;20171;-83
2023/05/24 05:15:42;;;;;;;9.75;5.53;;;;;;;18.91;63.54;94701.38;5063880;28;20163;-84
2023/05/24 05:18:07;;;;;;;9.57;6.03;;;;;;;19.17;64.43;94698.44;5065452;28;20705;-83
2023/05/24 05:20:33;;;;;;;10.13;5.22;;;;;;;19.61;63.51;94705.88;5066960;28;20171;-84
2023/05/24 05:22:58;;;;;;;11.00;6.40;;;;;;;20.23;62.09;94742.84;5067451;28;20178;-84
2023/05/24 05:25:23;;;;;;;13.15;5.82;;;;;;;20.44;60.05;94727.53;5062266;28;20555;-84
2023/05/24 05:27:49;;;;;;;9.23;5.70;;;;;;;20.45;60.28;94694.38;5062470;28;20170;-84
2023/05/24 05:30:16;;;;;;;6.85;4.78;;;;;;;20.90;59.19;94738.78;5064239;28;20176;-84
2023/05/24 05:32:41;;;;;;;9.48;5.38;;;;;;;21.02;58.21;94735.72;5063020;28;20175;-84
2023/05/24 05:35:07;;;;;;;11.27;4.97;;;;;;;21.04;58.42;94707.59;5063978;28;20175;-84
2023/05/24 05:37:33;;;;;;;20.05;6.07;;;;;;;21.30;56.39;94710.09;5066502;28;20575;-84
2023/05/24 05:39:58;;;;;;;9.73;5.50;;;;;;;21.74;56.73;94728.72;5066447;28;20253;-84
2023/05/24 05:42:23;;;;;;;10.15;6.00;;;;;;;21.92;54.85;94717.28;5066399;28;20190;-84
2023/05/24 05:44:49;;;;;;;9.32;5.00;;;;;;;22.01;56.33;94691.47;5066261;28;20250;-84
2023/05/24 05:47:14;;;;;;;11.35;5.20;;;;;;;22.00;54.94;94692.56;5065537;28;20166;-84
2023/05/24 05:49:40;;;;;;;7.80;5.57;;;;;;;21.96;54.44;94721.00;5073040;28;20230;-84
2023/05/24 05:52:05;;;;;;;8.98;5.60;;;;;;;22.38;54.99;94748.97;5063198;28;20172;-84
2023/05/24 05:54:31;;;;;;;8.30;5.47;;;;;;;22.30;53.79;94733.50;5067586;28;20204;-84
2023/05/24 05:56:57;;;;;;;10.95;5.78;;;;;;;22.35;54.56;94730.75;5064544;28;20612;-84
2023/05/24 05:59:22;;;;;;;11.43;5.90;;;;;;;22.70;53.90;94741.03;5071748;28;20166;-85
2023/05/24 06:01:48;;;;;;;8.38;5.55;;;;;;;22.70;52.41;94726.81;5065529;28;20271;-85
2023/05/24 06:04:17;;;;;;;11.10;5.72;;;;;;;23.06;52.89;94748.59;5062912;28;20177;-85
2023/05/24 06:06:44;;;;;;;16.95;7.53;;;;;;;22.97;52.42;94726.19;5062924;28;20176;-84
2023/05/24 06:09:09;;;;;;;12.27;5.40;;;;;;;23.30;52.66;94747.41;5066032;28;20199;-85
2023/05/24 06:11:35;;;;;;;12.15;5.60;;;;;;;23.51;52.03;94745.25;5062412;28;20225;-85
2023/05/24 06:14:01;;;;;;;8.23;5.93;;;;;;;23.18;51.06;94711.34;5063157;28;20577;-85
2023/05/24 06:16:27;;;;;;;14.95;6.22;;;;;;;23.13;51.47;94698.81;5065685;28;20245;-85
2023/05/24 06:18:53;;;;;;;11.00;6.68;;;;;;;23.29;50.58;94710.09;5066602;28;20167;-85
2023/05/24 06:21:19;;;;;;;10.95;6.45;;;;;;;23.30;50.89;94754.69;5063313;28;20175;-85
2023/05/24 06:23:44;;;;;;;13.35;6.40;;;;;;;23.44;52.67;94746.69;5061332;28;20177;-85
2023/05/24 06:26:10;;;;;;;10.15;6.03;;;;;;;23.32;51.54;94683.44;5063790;28;20170;-85
2023/05/24 06:28:35;;;;;;;11.05;5.93;;;;;;;23.69;52.13;94725.56;5060814;28;20280;-85
2023/05/24 06:31:02;;;;;;;11.27;6.72;;;;;;;23.39;50.61;94726.06;5060871;28;20174;-85
2023/05/24 06:33:27;;;;;;;13.05;6.82;;;;;;;23.55;50.50;94734.69;5065396;28;20190;-85
2023/05/24 06:35:53;;;;;;;15.00;6.13;;;;;;;23.52;51.10;94682.34;5060891;28;20163;-85
2023/05/24 06:38:18;;;;;;;9.90;6.13;;;;;;;24.03;51.88;94729.78;5061088;28;20614;-85
2023/05/24 06:40:43;;;;;;;10.85;6.55;;;;;;;24.24;49.73;94720.25;5064941;28;20171;-85
2023/05/24 06:43:09;;;;;;;11.15;6.03;;;;;;;24.51;49.37;94740.16;5063882;28;20206;-86
2023/05/24 06:45:36;;;;;;;11.13;5.60;;;;;;;24.17;49.49;94703.69;5065092;28;20660;-89
2023/05/24 06:48:02;;;;;;;14.73;6.95;;;;;;;24.43;47.76;94742.47;5063280;28;20213;-86
2023/05/24 06:50:27;;;;;;;9.63;6.38;;;;;;;24.22;49.54;94724.31;5060249;28;20198;-89
2023/05/24 06:52:53;;;;;;;10.30;6.38;;;;;;;24.11;48.56;94704.09;5060797;28;20187;-87
2023/05/24 06:55:19;;;;;;;16.30;6.85;;;;;;;24.20;49.69;94721.13;5062258;28;20167;-85
2023/05/24 06:57:44;;;;;;;8.95;5.68;;;;;;;24.52;50.74;94739.88;5063545;28;20175;-85
2023/05/24 07:00:11;;;;;;;8.02;6.30;;;;;;;24.57;51.13;94690.50;5064699;28;20171;-84
2023/05/24 07:02:40;;;;;;;16.67;7.45;;;;;;;25.08;48.85;94731.38;5063069;28;20269;-84
2023/05/24 07:05:13;;;;;;;10.45;7.35;;;;;;;25.21;48.27;94734.34;5062727;28;20170;-84
2023/05/24 07:07:42;;;;;;;8.82;6.15;;;;;;;25.29;48.14;94720.94;5061455;28;20186;-85
2023/05/24 07:10:09;;;;;;;7.43;5.57;;;;;;;25.53;48.66;94729.50;5060752;28;20217;-85
2023/05/24 07:12:35;;;;;;;11.43;5.78;;;;;;;25.65;48.07;94710.09;5061309;28;20218;-87
2023/05/24 07:15:00;;;;;;;14.40;7.68;;;;;;;25.96;47.10;94734.38;5063977;28;20244;-86
2023/05/24 07:17:26;;;;;;;9.32;6.53;;;;;;;25.73;45.93;94695.88;5064785;28;20563;-85
2023/05/24 07:19:51;;;;;;;9.88;6.43;;;;;;;25.89;46.94;94724.03;5060716;28;20169;-86
2023/05/24 07:22:17;;;;;;;8.95;5.07;;;;;;;25.80;45.74;94704.31;5062228;28;20548;-85
2023/05/24 07:24:42;;;;;;;9.55;5.90;;;;;;;25.76;45.62;94740.31;5066307;28;20174;-85
2023/05/24 07:27:08;;;;;;;6.93;5.22;;;;;;;25.72;47.54;94725.84;5059170;28;20583;-86
2023/05/24 07:29:33;;;;;;;7.50;4.82;;;;;;;25.67;47.90;94734.88;5062740;28;20202;-86
2023/05/24 07:31:59;;;;;;;5.75;4.60;;;;;;;25.66;48.94;94719.78;5062597;28;20556;-86
2023/05/24 07:34:26;;;;;;;9.68;4.28;;;;;;;25.96;49.62;94711.97;5065131;28;20169;-86
2023/05/24 07:36:52;;;;;;;6.55;3.80;;;;;;;26.24;49.80;94710.66;5056776;28;21082;-86
2023/05/24 07:39:19;;;;;;;6.47;4.68;;;;;;;26.33;46.41;94733.13;5051545;28;20246;-86
2023/05/24 07:41:44;;;;;;;8.30;4.38;;;;;;;26.46;49.33;94743.03;5062379;28;20180;-86
2023/05/24 07:44:10;;;;;;;8.38;4.10;;;;;;;26.56;46.41;94740.00;5064993;28;20257;-87
2023/05/24 07:46:36;;;;;;;9.98;4.50;;;;;;;26.51;47.44;94721.28;5058354;28;20159;-88
2023/05/24 07:49:02;;;;;;;8.05;4.47;;;;;;;26.52;45.57;94727.47;5061396;28;20187;-85
2023/05/24 07:51:27;;;;;;;9.32;3.60;;;;;;;26.63;44.66;94726.06;5064588;28;20228;-86
2023/05/24 07:53:53;;;;;;;6.57;3.90;;;;;;;26.61;45.60;94717.47;5070420;28;20159;-85
2023/05/24 07:56:18;;;;;;;5.68;3.85;;;;;;;26.93;44.21;94741.41;5059327;28;20175;-84
2023/05/24 07:58:45;;;;;;;7.35;3.80;;;;;;;27.05;45.31;94735.38;5060648;28;20250;-85
2023/05/24 08:01:12;;;;;;;9.85;3.88;;;;;;;27.23;43.40;94739.66;5063843;28;20170;-85
2023/05/24 08:03:38;;;;;;;8.73;3.85;;;;;;;27.27;45.99;94716.28;5060752;28;20170;-85
2023/05/24 08:06:04;;;;;;;10.65;3.80;;;;;;;27.52;42.18;94727.38;5060296;28;20175;-85
2023/05/24 08:08:29;;;;;;;5.10;3.85;;;;;;;27.36;42.90;94737.91;5060383;28;20193;-85
2023/05/24 08:10:55;;;;;;;8.93;3.42;;;;;;;27.40;43.02;94728.06;5062943;28;20240;-87
2023/05/24 08:13:20;;;;;;;6.65;4.13;;;;;;;27.39;42.16;94729.16;5061517;28;20189;-87
2023/05/24 08:15:46;;;;;;;4.13;3.17;;;;;;;27.28;41.44;94708.97;5059109;28;20205;-84
2023/05/24 08:18:13;;;;;;;7.68;3.50;;;;;;;26.96;39.10;94713.75;5067763;28;20174;-84
2023/05/24 08:20:39;;;;;;;6.18;3.05;;;;;;;26.89;40.47;94697.19;5061744;28;20175;-86
2023/05/24 08:23:05;;;;;;;4.85;2.65;;;;;;;27.20;39.58;94713.25;5059694;28;20250;-86
2023/05/24 08:25:30;;;;;;;4.03;2.67;;;;;;;27.26;37.90;94682.25;5060959;28;20250;-85
2023/05/24 08:27:56;;;;;;;5.55;3.00;;;;;;;27.56;39.02;94698.63;5069028;28;20178;-86
2023/05/24 08:30:22;;;;;;;5.40;3.17;;;;;;;27.77;40.85;94729.28;5059028;28;20171;-86
2023/05/24 08:32:47;;;;;;;3.75;3.00;;;;;;;27.66;41.79;94698.28;5055919;28;20198;-90
2023/05/24 08:35:13;;;;;;;6.03;2.97;;;;;;;27.67;39.79;94716.09;5064150;28;20174;-87
2023/05/24 08:37:38;;;;;;;4.78;2.83;;;;;;;27.68;40.39;94701.44;5063092;28;20174;-88
2023/05/24 08:40:04;;;;;;;4.45;2.50;;;;;;;27.77;40.87;94711.13;5066927;28;20253;-86
2023/05/24 08:42:31;;;;;;;4.43;2.55;;;;;;;27.47;35.11;94695.09;5059087;28;20244;-87
2023/05/24 08:45:25;;;;;;;5.53;2.60;;;;;;;27.88;39.24;94721.59;5060157;28;20258;-84
2023/05/24 08:47:50;;;;;;;3.70;2.78;;;;;;;27.62;34.31;94721.66;5058655;28;20183;-91
2023/05/24 08:50:17;;;;;;;6.80;3.17;;;;;;;27.34;34.97;94702.25;5061704;28;20202;-86
2023/05/24 08:52:44;;;;;;;6.88;3.03;;;;;;;27.42;34.66;94725.78;5055476;28;20202;-87
2023/05/24 08:55:10;;;;;;;2.50;2.30;;;;;;;27.33;36.28;94725.03;5059926;28;20642;-89
2023/05/24 08:57:38;;;;;;;4.15;2.58;;;;;;;26.98;38.69;94683.72;5065666;28;20174;-88
2023/05/24 09:00:10;;;;;;;2.97;2.25;;;;;;;27.14;39.40;94698.31;5052980;28;20660;-82
2023/05/24 09:02:37;;;;;;;5.72;2.67;;;;;;;27.11;37.50;94714.38;5064222;28;20197;-87
2023/05/24 09:05:04;;;;;;;4.40;3.10;;;;;;;26.92;35.00;94685.75;5063963;28;20231;-87
2023/05/24 09:07:30;;;;;;;6.43;3.22;;;;;;;26.42;36.35;94693.44;5063470;28;20183;-82
2023/05/24 09:09:59;;;;;;;7.43;2.50;;;;;;;26.36;36.78;94696.63;5053352;28;20203;-86
2023/05/24 09:12:28;;;;;;;4.78;2.50;;;;;;;26.37;37.98;94704.41;5054355;28;20223;-87
2023/05/24 09:14:54;;;;;;;3.75;2.92;;;;;;;26.26;36.48;94695.78;5052885;28;20217;-87
2023/05/24 09:17:20;;;;;;;3.60;2.80;;;;;;;25.93;40.14;94662.97;5059819;28;20182;-84
2023/05/24 09:19:48;;;;;;;4.35;2.78;;;;;;;26.04;36.78;94713.91;5064828;28;20166;-86
2023/05/24 09:22:15;;;;;;;5.05;2.70;;;;;;;26.01;37.53;94704.56;5064379;28;21060;-89
2023/05/24 09:24:41;;;;;;;4.18;2.60;;;;;;;25.66;36.20;94667.75;5066918;28;20658;-88
2023/05/24 09:27:07;;;;;;;4.22;2.28;;;;;;;25.86;40.77;94675.28;5060581;28;20170;-88
2023/05/24 09:29:36;;;;;;;10.68;2.90;;;;;;;26.16;38.40;94708.75;5070902;28;20244;-88
2023/05/24 09:32:03;;;;;;;5.63;2.75;;;;;;;26.12;38.65;94697.00;5067053;28;20179;-87
2023/05/24 09:34:36;;;;;;;4.43;2.80;;;;;;;25.52;37.01;94651.63;5067699;28;20171;-88
2023/05/24 09:37:02;;;;;;;3.85;2.20;;;;;;;25.48;38.42;94619.09;5062138;28;20226;-87
2023/05/24 09:39:27;;;;;;;4.05;2.58;;;;;;;26.07;40.36;94697.13;5057157;28;20724;-88
2023/05/24 09:41:56;;;;;;;5.28;2.40;;;;;;;25.34;34.72;94658.03;5071664;28;20266;-86
2023/05/24 09:44:25;;;;;;;3.28;2.25;;;;;;;25.40;34.36;94691.84;5059098;28;20191;-86
2023/05/24 09:46:51;;;;;;;4.85;2.15;;;;;;;24.97;35.14;94665.38;5063212;28;20186;-85
2023/05/24 09:49:16;;;;;;;6.05;2.22;;;;;;;24.61;36.42;94632.28;5071136;28;20194;-86
2023/05/24 09:51:41;;;;;;;3.03;2.35;;;;;;;24.98;36.06;94693.94;5057133;28;20262;-80
2023/05/24 09:54:08;;;;;;;4.15;2.78;;;;;;;24.94;38.97;94670.59;5055728;28;20654;-83
2023/05/24 09:56:34;;;;;;;4.05;2.25;;;;;;;25.15;34.90;94685.97;5062548;28;20174;-82
2023/05/24 09:59:05;;;;;;;3.17;2.30;;;;;;;24.99;34.93;94678.56;5058261;28;20175;-82
2023/05/24 10:01:32;;;;;;;2.80;2.25;;;;;;;25.14;39.37;94688.97;5057129;28;20199;-83
2023/05/24 10:03:59;;;;;;;2.83;2.33;;;;;;;25.26;35.91;94688.41;5068479;28;20166;-84
2023/05/24 10:06:24;;;;;;;6.90;2.70;;;;;;;25.33;36.82;94688.78;5060420;28;20174;-86
2023/05/24 10:08:51;;;;;;;2.95;2.42;;;;;;;25.50;36.01;94692.38;5064054;28;20205;-86
2023/05/24 10:11:17;;;;;;;6.13;3.88;;;;;;;25.63;36.18;94688.03;5053577;28;20257;-86
2023/05/24 10:13:43;;;;;;;3.80;2.45;;;;;;;25.58;36.64;94669.28;5059732;28;20261;-86
2023/05/24 10:16:09;;;;;;;6.60;2.83;;;;;;;25.45;36.63;94648.56;5056789;28;20278;-87
2023/05/24 10:18:34;;;;;;;10.60;4.25;;;;;;;25.57;40.68;94640.72;5058806;28;20174;-87
2023/05/24 10:21:01;;;;;;;12.95;2.83;;;;;;;25.84;36.04;94686.41;5071310;28;20178;-88
2023/05/24 10:23:31;;;;;;;4.65;2.97;;;;;;;25.70;34.33;94656.00;5064487;28;20171;-87
2023/05/24 10:26:10;;;;;;;4.55;2.35;;;;;;;25.71;33.47;94684.59;5059201;28;20168;-88
2023/05/24 10:28:41;;;;;;;2.60;2.40;;;;;;;25.63;33.81;94681.84;5067658;28;20183;-87
2023/05/24 10:31:11;;;;;;;4.13;2.80;;;;;;;25.43;34.14;94683.91;5071260;28;20174;-87
2023/05/24 10:33:39;;;;;;;6.70;3.15;;;;;;;25.46;39.48;94671.72;5064103;28;20174;-87
2023/05/24 10:36:07;;;;;;;9.40;2.65;;;;;;;25.50;34.28;94676.22;5056371;28;20170;-87
2023/05/24 10:38:33;;;;;;;2.97;2.05;;;;;;;24.99;34.14;94647.03;5055076;28;20182;-87
2023/05/24 10:40:59;;;;;;;3.30;2.22;;;;;;;25.15;36.51;94667.13;5051911;28;20548;-86
2023/05/24 10:43:25;;;;;;;4.72;2.67;;;;;;;24.69;35.35;94623.47;5052481;28;20183;-86
2023/05/24 10:45:50;;;;;;;3.60;2.60;;;;;;;24.77;34.50;94642.38;5052824;28;20236;-88
2023/05/24 10:48:16;;;;;;;4.18;2.38;;;;;;;24.70;34.20;94658.16;5052064;28;20596;-86
2023/05/24 10:50:43;;;;;;;2.85;2.22;;;;;;;24.58;35.94;94640.94;5055753;28;20638;-87
2023/05/24 10:53:15;;;;;;;3.92;2.15;;;;;;;24.41;36.66;94604.72;5048112;28;20188;-87
2023/05/24 10:56:02;;;;;;;2.90;2.28;;;;;;;24.74;35.36;94642.19;5062777;28;20170;-87
2023/05/24 10:58:50;;;;;;;3.42;2.55;;;;;;;24.68;36.22;94644.22;5061837;28;20159;-88
2023/05/24 11:01:32;;;;;;;6.05;2.70;;;;;;;24.77;37.49;94625.44;5062238;28;20701;-86
2023/05/24 11:04:14;;;;;;;3.55;2.55;;;;;;;25.03;37.02;94641.81;5060376;28;20179;-87
2023/05/24 11:06:54;;;;;;;4.75;2.63;;;;;;;25.22;35.87;94644.31;5061966;28;20185;-87
2023/05/24 11:09:20;;;;;;;3.47;2.40;;;;;;;25.11;35.21;94643.75;5058016;28;20211;-87
2023/05/24 11:11:48;;;;;;;3.35;2.70;;;;;;;25.06;37.10;94642.00;5063975;28;20214;-87
2023/05/24 11:14:21;;;;;;;4.32;2.47;;;;;;;24.88;35.61;94610.63;5063118;28;20186;-87
2023/05/24 11:16:48;;;;;;;3.47;2.60;;;;;;;25.16;35.76;94635.56;5062351;28;20175;-89
2023/05/24 11:19:17;;;;;;;4.30;2.47;;;;;;;25.35;35.24;94643.44;5066824;28;20632;-87
2023/05/24 11:21:44;;;;;;;3.08;2.25;;;;;;;25.03;35.01;94590.63;5055653;28;20182;-88
2023/05/24 11:24:10;;;;;;;3.63;2.03;;;;;;;25.39;35.52;94636.34;5062610;28;20178;-87
2023/05/24 11:26:36;;;;;;;8.30;2.72;;;;;;;25.06;34.67;94596.19;5061195;28;20175;-88
2023/05/24 11:29:02;;;;;;;3.45;2.83;;;;;;;25.02;36.82;94597.91;5064330;28;20195;-88
2023/05/24 11:31:28;;;;;;;3.58;2.35;;;;;;;25.01;35.92;94590.13;5062075;28;20178;-89